Time;durP1;ratioP1;P1;durP2;ratioP2;P2;SDS_P1;SDS_P2;PMS_P1;PMS_P2;Temp;Humidity;BMP_temperature;BMP_pressure;BME280_temperature;BME280_humidity;BME280_pressure;Samples;Min_cycle;Max_cycle;Signal;HPM_P1;HPM_P2
2022/01/31 00:00:05;;;;;;;12.18;4.47;;;;;;;-2.11;86.16;97828.63;5087473;28;20047;-61
2022/01/31 00:02:39;;;;;;;15.20;4.35;;;;;;;-2.05;86.71;97828.97;5081963;28;20055;-61
2022/01/31 00:05:06;;;;;;;11.88;4.55;;;;;;;-1.94;86.09;97836.66;5070934;28;20131;-60
2022/01/31 00:07:33;;;;;;;8.23;3.58;;;;;;;-1.81;85.63;97833.53;5067131;28;20059;-61
2022/01/31 00:10:05;;;;;;;8.80;3.15;;;;;;;-1.52;84.99;97826.97;5079854;28;20043;-61
2022/01/31 00:12:35;;;;;;;17.00;4.72;;;;;;;-1.39;84.54;97825.69;5074336;28;20036;-60
2022/01/31 00:15:04;;;;;;;10.25;3.65;;;;;;;-1.30;84.09;97822.03;5066902;28;20098;-59
2022/01/31 00:17:30;;;;;;;12.73;3.17;;;;;;;-1.12;83.66;97829.03;5072098;28;20036;-60
2022/01/31 00:19:57;;;;;;;9.73;3.05;;;;;;;-0.99;82.71;97818.72;5073816;28;20048;-61
2022/01/31 00:22:23;;;;;;;10.45;3.78;;;;;;;-1.07;82.80;97802.78;5080751;28;20044;-60
2022/01/31 00:24:50;;;;;;;9.85;3.42;;;;;;;-1.41;84.00;97798.47;5107669;28;20506;-62
2022/01/31 00:27:16;;;;;;;8.88;2.88;;;;;;;-1.36;84.39;97791.63;5087254;28;20105;-62
2022/01/31 00:29:43;;;;;;;10.55;3.90;;;;;;;-1.44;84.25;97784.50;5084706;28;20040;-62
2022/01/31 00:32:10;;;;;;;9.80;4.38;;;;;;;-1.60;84.22;97790.63;5075523;28;20168;-60
2022/01/31 00:34:37;;;;;;;10.55;4.13;;;;;;;-1.40;84.66;97808.09;5086273;28;20059;-62
2022/01/31 00:37:03;;;;;;;11.70;4.43;;;;;;;-1.15;83.32;97806.25;5077289;28;20218;-61
2022/01/31 00:39:34;;;;;;;15.48;3.67;;;;;;;-1.07;83.29;97802.78;5066406;28;20044;-60
2022/01/31 00:42:02;;;;;;;11.70;4.10;;;;;;;-1.21;83.88;97775.88;5066314;28;20037;-62
2022/01/31 00:44:46;;;;;;;12.50;4.70;;;;;;;-1.40;84.29;97778.88;5066227;28;20036;-62
2022/01/31 00:47:19;;;;;;;9.45;4.03;;;;;;;-1.30;84.13;97776.88;5065555;28;20059;-62
2022/01/31 00:49:50;;;;;;;12.77;3.83;;;;;;;-1.44;84.91;97755.28;5064916;28;20049;-62
2022/01/31 00:52:18;;;;;;;11.82;4.30;;;;;;;-1.37;84.33;97738.69;5079387;28;20047;-62
2022/01/31 00:54:45;;;;;;;14.23;4.18;;;;;;;-1.30;84.28;97729.03;5066566;28;20119;-61
2022/01/31 00:57:12;;;;;;;11.52;3.45;;;;;;;-1.14;84.36;97714.91;5067517;28;20040;-62
2022/01/31 00:59:39;;;;;;;13.73;3.58;;;;;;;-0.89;82.99;97717.53;5071677;28;20588;-61
2022/01/31 01:02:05;;;;;;;7.18;3.38;;;;;;;-0.67;82.18;97717.78;5084219;28;20162;-62
2022/01/31 01:04:32;;;;;;;9.70;3.08;;;;;;;-0.51;81.83;97729.38;5083036;28;20135;-62
2022/01/31 01:06:58;;;;;;;7.57;3.00;;;;;;;-0.40;80.74;97716.53;5084997;28;20044;-62
2022/01/31 01:09:25;;;;;;;5.55;3.05;;;;;;;-0.62;82.15;97704.84;5084512;28;20047;-62
2022/01/31 01:11:51;;;;;;;13.13;4.13;;;;;;;-0.76;82.79;97714.34;5079092;28;20040;-62
2022/01/31 01:14:18;;;;;;;10.70;3.53;;;;;;;-0.86;83.68;97705.72;5075592;28;20077;-62
2022/01/31 01:16:45;;;;;;;11.23;4.13;;;;;;;-0.94;84.19;97702.09;5081672;28;20097;-62
2022/01/31 01:19:11;;;;;;;14.82;4.30;;;;;;;-0.97;84.99;97686.47;5080480;28;20031;-60
2022/01/31 01:21:38;;;;;;;12.18;3.65;;;;;;;-0.85;83.48;97667.50;5075147;28;20033;-60
2022/01/31 01:24:04;;;;;;;9.30;3.72;;;;;;;-0.96;84.18;97653.56;5083541;28;20440;-60
2022/01/31 01:26:32;;;;;;;9.98;3.25;;;;;;;-0.79;83.65;97633.09;5085498;28;20495;-62
2022/01/31 01:29:01;;;;;;;15.13;3.40;;;;;;;-0.54;82.12;97635.63;5080393;28;20055;-61
2022/01/31 01:31:29;;;;;;;9.27;2.85;;;;;;;-0.28;81.16;97629.19;5077316;28;20641;-62
2022/01/31 01:33:55;;;;;;;9.18;3.65;;;;;;;-0.17;80.84;97630.59;5083493;28;20543;-62
2022/01/31 01:36:22;;;;;;;11.13;3.33;;;;;;;-0.10;80.43;97613.91;5082875;28;20040;-62
2022/01/31 01:38:49;;;;;;;10.60;2.95;;;;;;;-0.15;80.66;97606.44;5071074;28;20056;-62
2022/01/31 01:41:16;;;;;;;13.45;3.63;;;;;;;-0.33;81.59;97590.78;5071813;28;20044;-62
2022/01/31 01:43:43;;;;;;;6.47;2.72;;;;;;;-0.41;82.08;97581.84;5082976;28;20044;-62
2022/01/31 01:46:10;;;;;;;7.65;2.65;;;;;;;-0.22;81.15;97571.72;5083575;28;20040;-62
2022/01/31 01:48:37;;;;;;;9.38;2.97;;;;;;;-0.12;80.91;97534.22;5068133;28;20037;-61
2022/01/31 01:51:04;;;;;;;10.27;2.60;;;;;;;-0.28;81.54;97517.41;5077967;28;20131;-61
2022/01/31 01:53:31;;;;;;;11.43;2.90;;;;;;;-0.17;81.28;97512.66;5065629;28;20047;-62
2022/01/31 01:55:59;;;;;;;9.35;3.03;;;;;;;-0.14;80.71;97502.47;5073784;28;20522;-62
2022/01/31 01:58:37;;;;;;;11.25;3.50;;;;;;;-0.28;81.74;97488.13;5083049;28;20047;-62
2022/01/31 02:01:04;;;;;;;11.40;2.50;;;;;;;-0.10;80.58;97476.34;5079358;28;20051;-62
2022/01/31 02:03:51;;;;;;;8.20;2.67;;;;;;;-0.03;80.25;97460.47;5072011;28;20060;-62
2022/01/31 02:06:22;;;;;;;11.93;3.33;;;;;;;-0.04;80.03;97458.81;5084328;28;20469;-62
2022/01/31 02:08:49;;;;;;;8.85;2.67;;;;;;;0.03;79.79;97458.91;5073890;28;20072;-62
2022/01/31 02:11:21;;;;;;;11.65;3.20;;;;;;;0.17;79.48;97465.22;5071484;28;20044;-62
2022/01/31 02:13:50;;;;;;;13.05;3.15;;;;;;;0.07;79.47;97460.19;5077051;28;20105;-62
2022/01/31 02:16:26;;;;;;;8.20;2.92;;;;;;;-0.07;80.14;97464.50;5086483;28;20040;-62
2022/01/31 02:19:15;;;;;;;8.30;3.33;;;;;;;-0.35;80.95;97460.59;5087684;28;20044;-62
2022/01/31 02:21:48;;;;;;;;;;;;;;;-0.14;80.25;97461.72;5079244;28;20086;-62
2022/01/31 02:24:33;;;;;;;7.57;3.05;;;;;;;-0.05;79.97;97443.81;5081340;28;19927;-62
2022/01/31 02:27:30;;;;;;;9.00;2.72;;;;;;;-0.36;81.64;97434.16;5083275;28;20686;-61
2022/01/31 02:29:58;;;;;;;8.23;2.95;;;;;;;-0.39;81.42;97432.69;5077623;28;20048;-60
2022/01/31 02:32:26;;;;;;;8.25;3.38;;;;;;;-0.47;81.76;97444.22;5076941;28;20064;-62
2022/01/31 02:34:58;;;;;;;13.55;3.67;;;;;;;-0.53;82.21;97440.44;5075367;28;20131;-61
2022/01/31 02:37:24;;;;;;;9.18;4.20;;;;;;;-0.52;82.70;97419.97;5086497;28;20048;-63
2022/01/31 02:39:56;;;;;;;7.05;2.63;;;;;;;-0.41;82.44;97414.22;5072769;28;20063;-62
2022/01/31 02:42:23;;;;;;;9.55;3.35;;;;;;;-0.46;82.79;97390.00;5084696;28;20122;-61
2022/01/31 02:44:50;;;;;;;8.93;3.78;;;;;;;-0.43;82.68;97372.84;5078131;28;20072;-60
2022/01/31 02:47:26;;;;;;;7.18;2.40;;;;;;;-0.20;81.70;97369.28;5074621;28;20739;-61
2022/01/31 02:50:02;;;;;;;8.82;2.63;;;;;;;0.03;80.37;97358.56;5078386;28;20040;-59
2022/01/31 02:52:33;;;;;;;8.95;2.80;;;;;;;0.11;80.19;97331.81;5085636;28;20048;-60
2022/01/31 02:55:03;;;;;;;16.23;3.80;;;;;;;0.18;79.57;97326.59;5083050;28;20040;-61
2022/01/31 02:57:30;;;;;;;11.75;3.10;;;;;;;0.29;79.13;97319.94;5078076;28;20496;-62
2022/01/31 02:59:57;;;;;;;6.72;2.10;;;;;;;0.38;78.66;97310.81;5067623;28;20040;-62
2022/01/31 03:02:33;;;;;;;8.50;2.67;;;;;;;0.44;77.78;97325.25;5085776;28;20090;-61
2022/01/31 03:04:59;;;;;;;8.15;3.42;;;;;;;0.56;77.70;97325.59;5087247;28;20126;-62
2022/01/31 03:07:27;;;;;;;7.50;2.30;;;;;;;0.71;77.13;97308.72;5085197;28;20048;-62
2022/01/31 03:09:53;;;;;;;5.68;2.40;;;;;;;0.77;76.47;97292.78;5069833;28;20135;-62
2022/01/31 03:12:25;;;;;;;;;;;;;;;0.72;77.05;97283.69;5069877;28;20041;-62
2022/01/31 03:14:59;;;;;;;9.98;2.85;;;;;;;0.84;76.57;97268.00;5079555;28;19924;-61
2022/01/31 03:17:50;;;;;;;11.88;2.90;;;;;;;0.76;76.76;97259.16;5056202;28;20037;-62
2022/01/31 03:20:19;;;;;;;5.43;2.35;;;;;;;0.90;76.52;97265.44;5080374;28;20048;-62
2022/01/31 03:22:47;;;;;;;5.80;2.30;;;;;;;0.93;75.87;97247.38;5076511;28;20563;-62
2022/01/31 03:25:15;;;;;;;5.72;2.30;;;;;;;0.87;76.72;97217.00;5086787;28;20036;-62
2022/01/31 03:27:42;;;;;;;5.75;2.33;;;;;;;0.68;76.88;97219.31;5081197;28;20044;-62
2022/01/31 03:30:13;;;;;;;7.97;2.67;;;;;;;0.62;77.18;97202.25;5073955;28;20052;-60
2022/01/31 03:32:40;;;;;;;8.63;2.50;;;;;;;0.86;76.51;97173.53;5077667;28;20044;-62
2022/01/31 03:35:07;;;;;;;8.43;2.25;;;;;;;0.94;76.03;97163.72;5070266;28;20040;-62
2022/01/31 03:37:36;;;;;;;8.90;2.40;;;;;;;1.07;75.75;97163.00;5087736;28;20051;-60
2022/01/31 03:40:05;;;;;;;6.95;2.15;;;;;;;1.29;74.59;97198.41;5073066;28;20059;-61
2022/01/31 03:42:32;;;;;;;4.97;1.77;;;;;;;1.59;73.74;97232.84;5069952;28;20195;-62
2022/01/31 03:44:58;;;;;;;5.80;1.77;;;;;;;1.72;73.13;97228.56;5071338;28;20476;-60
2022/01/31 03:47:25;;;;;;;4.55;1.90;;;;;;;1.75;72.93;97221.00;5067731;28;20043;-61
2022/01/31 03:49:52;;;;;;;5.30;1.85;;;;;;;1.97;71.88;97220.88;5082661;28;20403;-62
2022/01/31 03:52:19;;;;;;;7.57;2.10;;;;;;;2.04;72.02;97210.22;5066759;28;20090;-62
2022/01/31 03:54:48;;;;;;;6.28;1.92;;;;;;;2.00;71.84;97201.78;5080262;28;20139;-60
2022/01/31 03:57:15;;;;;;;11.07;2.78;;;;;;;2.17;71.62;97188.03;5064863;28;20037;-61
2022/01/31 04:00:11;;;;;;;8.95;1.55;;;;;;;2.17;71.36;97199.56;5077260;28;20141;-61
2022/01/31 04:02:42;;;;;;;6.05;1.40;;;;;;;2.20;71.44;97198.31;5078793;28;20059;-62
2022/01/31 04:05:09;;;;;;;6.82;1.58;;;;;;;2.23;71.38;97197.09;5079766;28;20048;-61
2022/01/31 04:07:36;;;;;;;6.22;1.70;;;;;;;2.23;71.25;97202.44;5077938;28;20044;-60
2022/01/31 04:10:04;;;;;;;5.05;1.75;;;;;;;2.28;71.21;97198.13;5087328;28;20569;-61
2022/01/31 04:12:31;;;;;;;5.68;2.00;;;;;;;2.32;71.08;97195.91;5087519;28;20131;-62
2022/01/31 04:14:57;;;;;;;6.70;1.65;;;;;;;2.34;71.05;97194.66;5072056;28;20487;-60
2022/01/31 04:17:25;;;;;;;6.82;1.98;;;;;;;2.49;70.71;97179.44;5081069;28;20043;-60
2022/01/31 04:19:52;;;;;;;6.60;1.60;;;;;;;2.51;70.64;97178.22;5087087;28;20055;-62
2022/01/31 04:22:20;;;;;;;7.00;1.92;;;;;;;2.53;70.35;97164.66;5088921;28;20048;-62
2022/01/31 04:24:53;;;;;;;6.28;1.25;;;;;;;2.59;69.95;97171.88;5075860;28;20090;-61
2022/01/31 04:27:20;;;;;;;6.47;1.55;;;;;;;2.61;70.07;97153.75;5087781;28;20082;-62
2022/01/31 04:29:48;;;;;;;4.65;1.75;;;;;;;2.64;70.22;97155.19;5082012;28;20048;-61
2022/01/31 04:32:15;;;;;;;6.45;1.83;;;;;;;2.69;70.11;97161.56;5085747;28;20075;-62
2022/01/31 04:34:42;;;;;;;13.10;2.17;;;;;;;2.70;69.71;97163.22;5082931;28;20063;-60
2022/01/31 04:37:10;;;;;;;10.48;1.83;;;;;;;2.77;69.84;97132.97;5083655;28;20036;-61
2022/01/31 04:39:37;;;;;;;11.20;1.95;;;;;;;2.72;69.76;97120.22;5066689;28;20056;-62
2022/01/31 04:42:04;;;;;;;7.60;2.17;;;;;;;2.77;69.67;97123.13;5067958;28;20392;-62
2022/01/31 04:44:32;;;;;;;8.23;2.42;;;;;;;2.67;70.50;97107.50;5078149;28;20113;-61
2022/01/31 04:46:58;;;;;;;3.40;1.25;;;;;;;2.78;69.65;97099.88;5085607;28;20082;-62
2022/01/31 04:49:25;;;;;;;7.30;1.55;;;;;;;2.93;69.07;97091.59;5080269;28;20132;-60
2022/01/31 04:51:51;;;;;;;4.65;1.50;;;;;;;3.03;68.97;97081.31;5066345;28;20075;-62
2022/01/31 04:54:18;;;;;;;4.38;1.50;;;;;;;2.99;69.33;97070.19;5079100;28;20044;-62
2022/01/31 04:56:46;;;;;;;5.85;2.47;;;;;;;3.02;69.00;97063.59;5070504;28;20688;-61
2022/01/31 04:59:13;;;;;;;12.30;3.05;;;;;;;3.05;68.90;97049.81;5068309;28;20059;-61
2022/01/31 05:01:42;;;;;;;5.43;1.88;;;;;;;3.02;69.28;97041.38;5082542;28;20071;-61
2022/01/31 05:04:09;;;;;;;4.20;1.20;;;;;;;3.05;68.93;97030.25;5068486;28;20090;-62
2022/01/31 05:06:38;;;;;;;6.68;1.55;;;;;;;3.12;68.91;97029.19;5065939;28;20083;-61
2022/01/31 05:09:05;;;;;;;6.45;1.92;;;;;;;3.14;69.05;97002.25;5068779;28;20129;-61
2022/01/31 05:11:32;;;;;;;6.78;1.58;;;;;;;3.10;69.53;96999.16;5075152;28;20127;-61
2022/01/31 05:13:58;;;;;;;6.70;1.77;;;;;;;2.98;69.82;96974.94;5078455;28;20048;-61
2022/01/31 05:16:25;;;;;;;4.63;1.85;;;;;;;2.95;70.15;96935.22;5085745;28;20133;-62
2022/01/31 05:18:52;;;;;;;6.95;1.60;;;;;;;2.98;70.00;96942.00;5085693;28;20959;-62
2022/01/31 05:21:18;;;;;;;4.03;2.10;;;;;;;3.07;69.64;96946.09;5081550;28;20127;-62
2022/01/31 05:23:47;;;;;;;7.47;2.10;;;;;;;3.10;69.51;96947.53;5089344;28;20051;-62
2022/01/31 05:26:13;;;;;;;7.30;2.00;;;;;;;3.16;69.40;96953.88;5084827;28;20119;-62
2022/01/31 05:28:40;;;;;;;7.15;2.30;;;;;;;3.10;69.60;96931.47;5082157;28;20131;-62
2022/01/31 05:31:07;;;;;;;6.35;2.03;;;;;;;3.10;69.54;96926.91;5077371;28;20121;-61
2022/01/31 05:33:34;;;;;;;7.07;1.73;;;;;;;3.07;69.50;96919.34;5068679;28;20052;-61
2022/01/31 05:36:00;;;;;;;7.63;2.10;;;;;;;3.11;69.54;96919.72;5076489;28;20071;-61
2022/01/31 05:38:27;;;;;;;6.55;1.88;;;;;;;3.14;68.98;96894.41;5069780;28;20105;-60
2022/01/31 05:40:53;;;;;;;5.88;1.98;;;;;;;3.15;69.12;96894.19;5078678;28;20075;-61
2022/01/31 05:43:20;;;;;;;9.75;2.85;;;;;;;3.10;69.45;96869.94;5071512;28;20126;-60
2022/01/31 05:45:47;;;;;;;7.40;2.22;;;;;;;3.08;69.88;96856.78;5085768;28;20086;-62
2022/01/31 05:48:18;;;;;;;13.88;3.30;;;;;;;3.03;70.17;96875.34;5070011;28;20051;-62
2022/01/31 05:50:44;;;;;;;7.32;2.00;;;;;;;3.08;70.14;96872.84;5070379;28;20131;-65
2022/01/31 05:53:11;;;;;;;8.68;1.85;;;;;;;3.11;69.80;96872.41;5083562;28;20071;-58
2022/01/31 05:55:40;;;;;;;9.43;1.60;;;;;;;3.25;70.05;96862.41;5068649;28;20056;-60
2022/01/31 05:58:08;;;;;;;6.40;2.15;;;;;;;3.50;69.80;96856.25;5069939;28;20460;-60
2022/01/31 06:00:37;;;;;;;5.18;2.00;;;;;;;3.65;67.80;96855.09;5070124;28;20045;-59
2022/01/31 06:03:04;;;;;;;7.18;2.15;;;;;;;3.47;68.71;96845.97;5081662;28;20119;-60
2022/01/31 06:05:31;;;;;;;5.47;2.10;;;;;;;3.49;69.25;96849.25;5072401;28;20124;-60
2022/01/31 06:07:58;;;;;;;12.35;2.63;;;;;;;3.64;68.59;96854.28;5085368;28;20055;-59
2022/01/31 06:10:24;;;;;;;9.25;2.08;;;;;;;3.58;70.14;96846.31;5085096;28;20412;-59
2022/01/31 06:12:52;;;;;;;3.25;1.48;;;;;;;3.50;70.83;96858.91;5085576;28;20047;-57
2022/01/31 06:15:19;;;;;;;9.18;1.40;;;;;;;3.31;71.83;96839.31;5083894;28;20430;-59
2022/01/31 06:17:45;;;;;;;8.07;2.67;;;;;;;3.25;72.70;96832.97;5082106;28;20044;-59
2022/01/31 06:20:12;;;;;;;5.78;2.78;;;;;;;3.14;72.70;96831.03;5074325;28;20044;-58
2022/01/31 06:22:53;;;;;;;4.97;1.98;;;;;;;3.13;73.76;96837.38;5087401;28;20503;-57
2022/01/31 06:25:21;;;;;;;6.57;2.38;;;;;;;2.89;77.14;96839.84;5082252;28;20058;-57
2022/01/31 06:27:48;;;;;;;8.77;2.08;;;;;;;2.86;76.18;96832.22;5081860;28;20467;-56
2022/01/31 06:30:14;;;;;;;7.82;2.22;;;;;;;2.66;76.49;96840.38;5080868;28;20048;-65
2022/01/31 06:32:45;;;;;;;10.40;2.67;;;;;;;2.46;77.89;96846.63;5076579;28;20055;-66
2022/01/31 06:35:13;;;;;;;8.48;2.20;;;;;;;2.41;78.77;96846.47;5079921;28;20048;-66
2022/01/31 06:37:39;;;;;;;7.30;2.60;;;;;;;2.27;79.88;96838.50;5087078;28;20105;-65
2022/01/31 06:40:06;;;;;;;5.13;1.92;;;;;;;2.24;80.01;96843.47;5079012;28;20131;-66
2022/01/31 06:42:33;;;;;;;8.25;2.10;;;;;;;2.18;80.74;96845.13;5089577;28;20036;-65
2022/01/31 06:44:59;;;;;;;6.22;1.90;;;;;;;2.13;80.83;96850.28;5089924;28;20516;-67
2022/01/31 06:47:27;;;;;;;9.15;2.15;;;;;;;2.21;81.40;96864.19;5080645;28;20070;-66
2022/01/31 06:49:53;;;;;;;6.15;2.03;;;;;;;2.20;81.67;96865.25;5082665;28;20052;-66
2022/01/31 06:52:20;;;;;;;7.63;1.85;;;;;;;2.17;82.31;96867.50;5096334;28;20521;-66
2022/01/31 06:54:50;;;;;;;9.43;2.67;;;;;;;1.99;82.78;96863.63;5075627;28;20048;-67
2022/01/31 06:57:18;;;;;;;5.32;2.22;;;;;;;1.94;83.62;96863.47;5084778;28;20044;-67
2022/01/31 06:59:44;;;;;;;8.68;2.13;;;;;;;2.02;83.22;96871.25;5089629;28;20073;-67
2022/01/31 07:02:11;;;;;;;3.97;1.88;;;;;;;1.98;83.69;96863.88;5083203;28;20048;-66
2022/01/31 07:04:38;;;;;;;10.43;2.78;;;;;;;1.85;84.20;96864.72;5086570;28;20044;-66
2022/01/31 07:07:04;;;;;;;11.80;2.15;;;;;;;2.00;84.31;96856.47;5080903;28;20070;-65
2022/01/31 07:09:33;;;;;;;6.43;1.75;;;;;;;1.99;84.97;96841.47;5084701;28;20056;-66
2022/01/31 07:12:00;;;;;;;4.05;1.30;;;;;;;1.94;84.92;96848.28;5076684;28;20169;-67
2022/01/31 07:14:30;;;;;;;6.30;2.13;;;;;;;1.67;86.03;96844.84;5083009;28;20048;-67
2022/01/31 07:17:02;;;;;;;8.52;2.70;;;;;;;1.67;85.98;96847.50;5085815;28;20446;-66
2022/01/31 07:19:32;;;;;;;5.28;1.67;;;;;;;1.69;86.14;96850.75;5096506;28;20048;-66
2022/01/31 07:22:00;;;;;;;6.25;2.17;;;;;;;1.71;86.55;96866.56;5086336;28;20440;-68
2022/01/31 07:26:53;;;;;;;8.38;1.73;;;;;;;1.69;86.50;96856.09;5086795;28;20089;-69
2022/01/31 07:29:21;;;;;;;4.85;1.17;;;;;;;1.69;86.37;96866.78;5085123;28;20530;-70
2022/01/31 07:31:49;;;;;;;3.95;1.55;;;;;;;1.73;85.73;96857.34;5080328;28;20044;-69
2022/01/31 07:34:17;;;;;;;4.47;1.58;;;;;;;1.64;86.78;96861.25;5078743;28;20603;-67
2022/01/31 07:36:45;;;;;;;3.65;1.23;;;;;;;1.70;86.55;96865.78;5085235;28;20071;-69
2022/01/31 07:39:12;;;;;;;2.33;0.80;;;;;;;1.77;86.13;96873.78;5086098;28;20400;-68
2022/01/31 07:41:39;;;;;;;2.28;0.80;;;;;;;1.83;85.80;96891.63;5068702;28;20045;-67
2022/01/31 07:44:07;;;;;;;2.55;0.88;;;;;;;1.82;85.58;96881.97;5077856;28;20051;-68
2022/01/31 07:46:34;;;;;;;3.00;0.95;;;;;;;1.90;85.60;96889.75;5087834;28;20039;-69
2022/01/31 07:49:00;;;;;;;2.72;0.90;;;;;;;1.95;84.84;96892.63;5093229;28;20127;-68
2022/01/31 07:51:27;;;;;;;1.52;0.80;;;;;;;2.02;84.89;96891.78;5097777;28;20576;-71
2022/01/31 07:53:54;;;;;;;1.10;0.43;;;;;;;2.06;84.25;96898.34;5078725;28;20438;-69
2022/01/31 07:56:20;;;;;;;2.30;0.70;;;;;;;1.93;84.61;96894.69;5073547;28;20116;-70
2022/01/31 07:58:47;;;;;;;0.93;0.50;;;;;;;2.04;84.37;96897.75;5083490;28;20055;-71
2022/01/31 08:01:14;;;;;;;1.48;0.57;;;;;;;2.02;84.08;96886.44;5086088;28;20043;-71
2022/01/31 08:03:41;;;;;;;0.85;0.60;;;;;;;2.05;84.46;96880.69;5082382;28;20444;-70
2022/01/31 08:06:08;;;;;;;1.92;0.60;;;;;;;2.03;84.39;96888.91;5087667;28;20109;-69
2022/01/31 08:08:35;;;;;;;2.72;0.77;;;;;;;2.03;84.79;96872.06;5092785;28;20051;-68
2022/01/31 08:11:04;;;;;;;0.93;0.60;;;;;;;2.02;84.08;96881.09;5085464;28;20052;-70
2022/01/31 08:13:34;;;;;;;1.50;0.45;;;;;;;2.07;83.12;96900.00;5083198;28;20046;-69
2022/01/31 08:18:38;;;;;;;0.82;0.52;;;;;;;2.14;83.17;96887.44;5096205;28;20297;-68
2022/01/31 08:21:06;;;;;;;2.15;0.80;;;;;;;2.06;83.90;96890.34;5095524;28;20214;-70
2022/01/31 08:23:33;;;;;;;1.13;0.68;;;;;;;2.13;83.41;96903.69;5095277;28;20048;-71
2022/01/31 08:26:04;;;;;;;1.23;0.65;;;;;;;2.13;83.26;96891.13;5076135;28;20055;-69
2022/01/31 08:29:18;;;;;;;1.02;0.75;;;;;;;2.11;83.10;96905.75;5086654;28;20594;-69
2022/01/31 08:31:37;;;;;;;3.45;1.13;;;;;;;2.21;82.28;96901.59;5083131;28;20056;-66
2022/01/31 08:34:18;;;;;;;2.97;0.85;;;;;;;2.23;82.35;96897.91;5081148;28;20044;-67
2022/01/31 08:36:45;;;;;;;3.90;0.90;;;;;;;2.27;82.76;96885.75;5084326;28;20582;-69
2022/01/31 08:39:18;;;;;;;3.58;1.10;;;;;;;2.28;82.20;96885.56;5071091;28;20047;-67
2022/01/31 08:41:47;;;;;;;2.55;1.00;;;;;;;2.35;81.80;96888.19;5081766;28;20044;-67
2022/01/31 08:44:17;;;;;;;3.95;1.20;;;;;;;2.37;82.06;96894.16;5095853;28;20059;-67
2022/01/31 08:46:46;;;;;;;3.13;1.47;;;;;;;2.31;81.79;96869.09;5088047;28;20052;-67
2022/01/31 08:49:14;;;;;;;1.25;0.70;;;;;;;2.49;81.13;96874.78;5084243;28;20047;-67
2022/01/31 08:51:43;;;;;;;1.27;0.80;;;;;;;2.53;81.20;96854.63;5073965;28;20042;-67
2022/01/31 08:54:10;;;;;;;2.83;1.00;;;;;;;2.61;80.53;96870.41;5097222;28;20040;-67
2022/01/31 08:56:44;;;;;;;2.90;1.40;;;;;;;2.62;80.81;96841.84;5069832;28;20048;-67
2022/01/31 08:59:14;;;;;;;2.65;1.08;;;;;;;2.64;80.03;96843.25;5098320;28;20502;-67
2022/01/31 09:01:43;;;;;;;3.25;0.85;;;;;;;2.81;79.53;96837.41;5085344;28;20047;-67
2022/01/31 09:04:12;;;;;;;3.67;1.42;;;;;;;2.89;79.29;96826.47;5086559;28;20113;-67
2022/01/31 09:06:39;;;;;;;1.35;0.80;;;;;;;3.02;78.82;96825.53;5095218;28;20044;-66
2022/01/31 09:09:08;;;;;;;1.73;0.73;;;;;;;3.10;78.41;96829.81;5098310;28;20127;-67
2022/01/31 09:11:37;;;;;;;1.35;0.82;;;;;;;3.04;78.40;96838.69;5095002;28;20052;-67
2022/01/31 09:14:03;;;;;;;2.83;0.98;;;;;;;3.13;79.24;96845.41;5087043;28;20305;-67
2022/01/31 09:16:30;;;;;;;2.22;1.00;;;;;;;3.25;77.46;96854.38;5081896;28;20043;-67
2022/01/31 09:18:57;;;;;;;3.63;0.95;;;;;;;3.34;78.04;96854.09;5098165;28;20093;-67
2022/01/31 09:21:23;;;;;;;3.58;1.77;;;;;;;3.33;77.53;96874.72;5094370;28;20635;-67
2022/01/31 09:23:52;;;;;;;1.40;0.82;;;;;;;3.31;77.55;96843.88;5098083;27;20043;-67
2022/01/31 09:26:22;;;;;;;3.67;1.25;;;;;;;3.36;77.69;96842.16;5084560;28;20113;-67
2022/01/31 09:28:52;;;;;;;2.10;1.15;;;;;;;3.34;77.12;96836.22;5088372;28;20047;-67
2022/01/31 09:31:20;;;;;;;2.35;0.80;;;;;;;3.52;76.73;96850.69;5092825;28;20052;-67
2022/01/31 09:33:47;;;;;;;5.97;2.05;;;;;;;3.63;77.60;96846.47;5097808;28;20249;-66
2022/01/31 09:36:14;;;;;;;3.20;1.33;;;;;;;3.61;76.38;96844.00;5084289;28;20048;-66
2022/01/31 09:38:42;;;;;;;3.30;1.23;;;;;;;3.80;76.41;96848.56;5084122;28;20499;-66
2022/01/31 09:41:11;;;;;;;2.92;1.25;;;;;;;3.95;75.83;96824.94;5083707;28;20085;-67
2022/01/31 09:44:39;;;;;;;5.35;1.45;;;;;;;3.60;76.59;96837.00;5084050;28;20055;-68
2022/01/31 09:48:56;;;;;;;3.97;1.38;;;;;;;3.40;75.14;96822.97;5084060;28;20047;-67
2022/01/31 09:51:25;;;;;;;4.85;1.60;;;;;;;3.28;75.67;96812.19;5084585;28;20047;-67
2022/01/31 09:53:55;;;;;;;2.90;1.50;;;;;;;3.23;75.60;96827.03;5084215;28;20048;-66
2022/01/31 09:56:27;;;;;;;2.72;0.75;;;;;;;3.29;75.39;96827.19;5097439;28;20047;-66
2022/01/31 09:58:55;;;;;;;2.65;1.10;;;;;;;3.26;75.05;96828.44;5094391;28;20406;-66
2022/01/31 10:01:47;;;;;;;1.98;1.10;;;;;;;3.24;76.01;96817.97;5088628;28;20518;-66
2022/01/31 10:04:17;;;;;;;4.28;1.30;;;;;;;3.29;75.86;96829.88;5083416;28;20072;-66
2022/01/31 10:06:47;;;;;;;10.98;2.67;;;;;;;3.21;76.50;96834.44;5083537;28;20040;-66
2022/01/31 10:09:22;;;;;;;2.72;1.35;;;;;;;3.22;75.95;96836.09;5082067;28;20063;-66
2022/01/31 10:12:03;;;;;;;3.50;1.13;;;;;;;3.21;76.17;96830.97;5085434;28;20055;-67
2022/01/31 10:17:35;;;;;;;2.92;1.40;;;;;;;3.18;76.23;96826.88;5078207;28;20036;-66
2022/01/31 10:20:30;;;;;;;2.47;1.13;;;;;;;3.34;75.05;96830.84;5085683;28;20032;-66
2022/01/31 10:23:05;;;;;;;3.90;1.40;;;;;;;3.48;75.38;96812.84;5085492;28;20055;-67
2022/01/31 10:25:32;;;;;;;4.75;2.08;;;;;;;3.48;74.63;96812.00;5085569;28;20036;-67
2022/01/31 10:28:11;;;;;;;5.53;1.70;;;;;;;3.60;74.31;96834.34;5085080;28;20153;-66
2022/01/31 10:30:38;;;;;;;4.97;1.23;;;;;;;3.62;74.17;96815.38;5083641;28;20036;-67
2022/01/31 10:33:07;;;;;;;3.10;1.20;;;;;;;3.69;74.97;96837.53;5083208;28;20044;-67
2022/01/31 10:35:35;;;;;;;2.33;1.20;;;;;;;3.66;73.01;96823.78;5088976;28;20044;-66
2022/01/31 10:38:10;;;;;;;4.38;1.20;;;;;;;3.46;74.36;96830.16;5088470;28;20056;-66
2022/01/31 10:52:06;;;;;;;2.17;0.93;;;;;;;3.43;73.21;96826.03;5089224;28;20043;-67
2022/01/31 10:57:22;;;;;;;3.75;1.20;;;;;;;3.49;73.59;96819.81;5088672;28;20044;-67
2022/01/31 10:59:55;;;;;;;3.20;1.13;;;;;;;3.47;73.02;96819.19;5088788;28;20044;-66
2022/01/31 11:02:24;;;;;;;3.22;1.15;;;;;;;3.60;72.87;96815.59;5089602;28;20071;-67
2022/01/31 11:04:52;;;;;;;4.50;1.77;;;;;;;3.72;72.02;96812.19;5088552;28;20292;-66
2022/01/31 11:07:22;;;;;;;2.10;1.05;;;;;;;3.94;71.60;96814.44;5087934;28;20469;-67
2022/01/31 11:09:51;;;;;;;5.03;2.40;;;;;;;3.95;71.79;96808.88;5089004;28;20123;-67
2022/01/31 11:12:24;;;;;;;3.67;1.30;;;;;;;4.03;72.23;96813.91;5088115;28;20580;-66
2022/01/31 11:14:56;;;;;;;4.57;1.40;;;;;;;3.99;71.31;96814.59;5088870;28;20035;-66
2022/01/31 11:17:25;;;;;;;2.83;1.10;;;;;;;3.95;71.51;96806.19;5085932;28;20044;-66
2022/01/31 11:19:57;;;;;;;3.95;0.80;;;;;;;4.02;72.03;96814.16;5085540;28;20521;-67
2022/01/31 11:22:35;;;;;;;3.40;1.42;;;;;;;3.76;73.22;96808.84;5099272;28;20079;-66
2022/01/31 11:25:15;;;;;;;3.38;1.33;;;;;;;3.48;74.44;96817.34;5104287;28;20506;-67
2022/01/31 11:27:51;;;;;;;1.35;0.90;;;;;;;3.25;75.87;96824.16;5085925;28;20290;-67
2022/01/31 11:30:17;;;;;;;3.55;0.90;;;;;;;3.13;75.97;96826.69;5099213;28;20063;-67
2022/01/31 11:32:46;;;;;;;4.25;1.10;;;;;;;3.09;76.40;96825.47;5087099;28;20056;-67
2022/01/31 11:35:13;;;;;;;3.00;1.45;;;;;;;3.03;76.99;96821.00;5086175;28;20032;-67
2022/01/31 11:37:39;;;;;;;3.95;1.45;;;;;;;3.04;75.94;96819.97;5086558;28;20113;-67
2022/01/31 11:40:09;;;;;;;4.97;1.63;;;;;;;2.93;77.22;96824.16;5099337;28;20415;-66
2022/01/31 11:42:36;;;;;;;1.92;0.85;;;;;;;2.96;77.43;96843.28;5084907;28;20040;-65
2022/01/31 11:45:07;;;;;;;5.97;1.77;;;;;;;2.88;77.00;96835.53;5087938;28;20043;-67
2022/01/31 11:47:36;;;;;;;3.17;1.00;;;;;;;2.95;78.00;96822.91;5088087;28;20530;-67
2022/01/31 11:50:07;;;;;;;3.95;1.48;;;;;;;2.83;77.73;96844.19;5087348;28;20316;-67
2022/01/31 11:52:44;;;;;;;1.80;0.60;;;;;;;2.95;76.70;96836.28;5088523;28;20664;-67
2022/01/31 11:55:14;;;;;;;6.25;1.50;;;;;;;2.88;76.70;96829.34;5087033;28;20704;-67
2022/01/31 11:57:46;;;;;;;2.03;1.10;;;;;;;2.88;75.93;96848.06;5087887;28;20089;-67
2022/01/31 12:00:14;;;;;;;2.78;1.40;;;;;;;2.89;75.78;96837.16;5087706;28;20048;-67
2022/01/31 12:02:48;;;;;;;3.08;1.20;;;;;;;2.80;75.27;96836.59;5088668;28;20078;-67
2022/01/31 12:05:22;;;;;;;1.45;0.80;;;;;;;2.91;75.45;96832.41;5087837;28;20115;-66
2022/01/31 12:08:15;;;;;;;2.28;1.10;;;;;;;2.87;74.42;96833.88;5087706;28;20040;-67
2022/01/31 12:10:47;;;;;;;;;;;;;;;2.97;74.38;96822.69;5088330;28;20040;-67
2022/01/31 12:13:41;;;;;;;5.25;0.98;;;;;;;3.02;73.61;96817.50;5085846;28;19969;-67